sensor_id;sensor_type;location;lat;lon;timestamp;pressure;altitude;pressure_sealevel;temperature;humidity
63115;BME280;49208;50.874;6.466;2024-02-23T07:39:11;98130.94;;;4.64;100.00
63115;BME280;49208;50.874;6.466;2024-02-23T07:41:37;98131.91;;;5.16;99.08
63115;BME280;49208;50.874;6.466;2024-02-23T07:44:02;98137.03;;;5.70;97.71
63115;BME280;49208;50.874;6.466;2024-02-23T07:46:27;98140.66;;;6.50;94.81
63115;BME280;49208;50.874;6.466;2024-02-23T07:48:53;98149.44;;;7.71;88.79
63115;BME280;49208;50.874;6.466;2024-02-23T07:51:19;98144.28;;;8.81;80.19
63115;BME280;49208;50.874;6.466;2024-02-23T07:53:44;98145.34;;;8.79;75.41
63115;BME280;49208;50.874;6.466;2024-02-23T07:56:10;98146.94;;;8.40;77.48
63115;BME280;49208;50.874;6.466;2024-02-23T07:58:35;98139.97;;;8.80;77.37
63115;BME280;49208;50.874;6.466;2024-02-23T08:01:01;98151.44;;;9.34;72.99
63115;BME280;49208;50.874;6.466;2024-02-23T08:03:26;98147.13;;;8.93;72.15
63115;BME280;49208;50.874;6.466;2024-02-23T08:05:52;98149.69;;;8.38;75.03
63115;BME280;49208;50.874;6.466;2024-02-23T08:08:17;98132.13;;;8.64;75.04
63115;BME280;49208;50.874;6.466;2024-02-23T08:10:44;98141.28;;;9.00;72.21
63115;BME280;49208;50.874;6.466;2024-02-23T08:13:09;98149.91;;;9.82;70.85
63115;BME280;49208;50.874;6.466;2024-02-23T08:15:36;98146.53;;;10.80;65.01
63115;BME280;49208;50.874;6.466;2024-02-23T08:18:01;98139.59;;;11.61;63.12
63115;BME280;49208;50.874;6.466;2024-02-23T08:20:27;98151.53;;;12.58;60.00
63115;BME280;49208;50.874;6.466;2024-02-23T08:22:52;98143.16;;;13.81;56.18
63115;BME280;49208;50.874;6.466;2024-02-23T08:25:17;98147.41;;;14.95;51.18
63115;BME280;49208;50.874;6.466;2024-02-23T08:27:43;98145.69;;;14.44;50.24
63115;BME280;49208;50.874;6.466;2024-02-23T08:30:09;98149.59;;;13.57;51.55
63115;BME280;49208;50.874;6.466;2024-02-23T08:32:36;98156.84;;;12.47;55.45
63115;BME280;49208;50.874;6.466;2024-02-23T08:35:01;98158.56;;;12.48;55.47
63115;BME280;49208;50.874;6.466;2024-02-23T08:37:28;98160.63;;;12.22;55.31
63115;BME280;49208;50.874;6.466;2024-02-23T08:39:53;98155.47;;;11.62;56.81
63115;BME280;49208;50.874;6.466;2024-02-23T08:42:19;98162.28;;;10.83;60.53
63115;BME280;49208;50.874;6.466;2024-02-23T08:44:45;98153.41;;;10.34;63.69
63115;BME280;49208;50.874;6.466;2024-02-23T08:47:10;98163.16;;;10.70;63.96
63115;BME280;49208;50.874;6.466;2024-02-23T08:49:37;98166.84;;;10.94;63.23
63115;BME280;49208;50.874;6.466;2024-02-23T08:52:02;98165.50;;;11.23;60.96
63115;BME280;49208;50.874;6.466;2024-02-23T08:54:29;98159.09;;;11.26;60.02
63115;BME280;49208;50.874;6.466;2024-02-23T08:56:54;98156.63;;;11.47;60.90
63115;BME280;49208;50.874;6.466;2024-02-23T08:59:20;98143.75;;;11.29;60.14
63115;BME280;49208;50.874;6.466;2024-02-23T09:01:45;98150.94;;;10.68;62.41
63115;BME280;49208;50.874;6.466;2024-02-23T09:04:12;98132.47;;;10.54;62.21
63115;BME280;49208;50.874;6.466;2024-02-23T09:06:37;98142.88;;;10.94;63.64
63115;BME280;49208;50.874;6.466;2024-02-23T09:09:02;98137.44;;;11.30;60.50
63115;BME280;49208;50.874;6.466;2024-02-23T09:11:28;98146.66;;;11.02;60.90
63115;BME280;49208;50.874;6.466;2024-02-23T09:13:53;98145.03;;;10.51;63.60
63115;BME280;49208;50.874;6.466;2024-02-23T09:16:18;98151.97;;;10.28;62.76
63115;BME280;49208;50.874;6.466;2024-02-23T09:18:44;98146.03;;;10.25;62.62
63115;BME280;49208;50.874;6.466;2024-02-23T09:21:09;98156.06;;;10.21;65.67
63115;BME280;49208;50.874;6.466;2024-02-23T09:23:35;98160.09;;;10.01;64.30
63115;BME280;49208;50.874;6.466;2024-02-23T09:26:00;98172.09;;;9.68;65.87
63115;BME280;49208;50.874;6.466;2024-02-23T09:28:25;98180.72;;;9.19;67.50
63115;BME280;49208;50.874;6.466;2024-02-23T09:30:51;98171.88;;;8.79;68.63
63115;BME280;49208;50.874;6.466;2024-02-23T09:33:16;98182.53;;;8.36;70.54
63115;BME280;49208;50.874;6.466;2024-02-23T09:35:41;98177.38;;;8.20;72.16
63115;BME280;49208;50.874;6.466;2024-02-23T09:38:07;98172.44;;;8.14;70.66
63115;BME280;49208;50.874;6.466;2024-02-23T09:40:32;98176.63;;;8.03;72.78
63115;BME280;49208;50.874;6.466;2024-02-23T09:42:58;98175.94;;;8.14;71.45
63115;BME280;49208;50.874;6.466;2024-02-23T09:45:25;98181.81;;;8.48;73.49
63115;BME280;49208;50.874;6.466;2024-02-23T09:47:52;98173.03;;;8.75;74.75
63115;BME280;49208;50.874;6.466;2024-02-23T09:50:20;98172.78;;;8.92;71.91
63115;BME280;49208;50.874;6.466;2024-02-23T09:52:47;98171.69;;;9.09;71.06
63115;BME280;49208;50.874;6.466;2024-02-23T09:55:16;98174.97;;;9.13;68.39
63115;BME280;49208;50.874;6.466;2024-02-23T09:57:42;98178.19;;;9.18;70.15
63115;BME280;49208;50.874;6.466;2024-02-23T10:00:08;98172.44;;;9.11;70.25
63115;BME280;49208;50.874;6.466;2024-02-23T10:02:34;98172.50;;;8.97;69.33
63115;BME280;49208;50.874;6.466;2024-02-23T10:05:01;98179.19;;;8.75;69.48
63115;BME280;49208;50.874;6.466;2024-02-23T10:07:27;98166.06;;;8.59;70.32
63115;BME280;49208;50.874;6.466;2024-02-23T10:09:53;98166.84;;;8.33;68.95
63115;BME280;49208;50.874;6.466;2024-02-23T10:12:20;98173.22;;;8.16;71.88
63115;BME280;49208;50.874;6.466;2024-02-23T10:14:46;98182.66;;;8.05;75.14
63115;BME280;49208;50.874;6.466;2024-02-23T10:17:11;98173.66;;;7.94;74.69
63115;BME280;49208;50.874;6.466;2024-02-23T10:19:37;98180.66;;;7.95;74.67
63115;BME280;49208;50.874;6.466;2024-02-23T10:22:03;98173.66;;;7.94;72.11
63115;BME280;49208;50.874;6.466;2024-02-23T10:24:29;98171.69;;;7.97;76.52
63115;BME280;49208;50.874;6.466;2024-02-23T10:26:55;98179.16;;;8.05;71.60
63115;BME280;49208;50.874;6.466;2024-02-23T10:29:20;98186.34;;;8.03;74.10
63115;BME280;49208;50.874;6.466;2024-02-23T10:31:47;98186.47;;;8.01;72.89
63115;BME280;49208;50.874;6.466;2024-02-23T10:34:17;98181.41;;;7.97;73.62
63115;BME280;49208;50.874;6.466;2024-02-23T10:36:43;98195.03;;;7.90;74.00
63115;BME280;49208;50.874;6.466;2024-02-23T10:39:10;98189.19;;;7.85;74.13
63115;BME280;49208;50.874;6.466;2024-02-23T10:41:37;98183.78;;;7.73;73.67
63115;BME280;49208;50.874;6.466;2024-02-23T10:44:05;98199.28;;;7.64;76.88
63115;BME280;49208;50.874;6.466;2024-02-23T10:46:32;98204.84;;;7.60;76.53
63115;BME280;49208;50.874;6.466;2024-02-23T10:48:58;98202.28;;;7.58;77.27
63115;BME280;49208;50.874;6.466;2024-02-23T10:51:27;98207.38;;;7.61;77.20
63115;BME280;49208;50.874;6.466;2024-02-23T10:53:53;98212.16;;;7.71;78.20
63115;BME280;49208;50.874;6.466;2024-02-23T10:56:18;98195.03;;;7.76;75.40
63115;BME280;49208;50.874;6.466;2024-02-23T10:58:45;98201.75;;;7.82;76.53
63115;BME280;49208;50.874;6.466;2024-02-23T11:01:11;98194.75;;;7.81;76.44
63115;BME280;49208;50.874;6.466;2024-02-23T11:03:41;98195.16;;;7.89;77.04
63115;BME280;49208;50.874;6.466;2024-02-23T11:06:08;98200.06;;;7.95;76.51
63115;BME280;49208;50.874;6.466;2024-02-23T11:08:33;98199.31;;;7.93;75.56
63115;BME280;49208;50.874;6.466;2024-02-23T11:11:10;98202.97;;;7.90;75.78
63115;BME280;49208;50.874;6.466;2024-02-23T11:13:39;98213.69;;;7.89;76.79
63115;BME280;49208;50.874;6.466;2024-02-23T11:16:05;98212.94;;;7.87;75.59
63115;BME280;49208;50.874;6.466;2024-02-23T11:18:32;98215.59;;;7.87;76.62
63115;BME280;49208;50.874;6.466;2024-02-23T11:21:00;98212.09;;;7.86;73.96
63115;BME280;49208;50.874;6.466;2024-02-23T11:23:38;98204.16;;;7.86;75.83
63115;BME280;49208;50.874;6.466;2024-02-23T11:26:05;98199.56;;;7.88;76.43
63115;BME280;49208;50.874;6.466;2024-02-23T11:28:31;98203.84;;;7.91;75.59
63115;BME280;49208;50.874;6.466;2024-02-23T11:30:57;98195.72;;;7.94;76.75
63115;BME280;49208;50.874;6.466;2024-02-23T11:33:30;98206.00;;;7.99;77.25
63115;BME280;49208;50.874;6.466;2024-02-23T11:36:09;98202.34;;;8.01;77.39
63115;BME280;49208;50.874;6.466;2024-02-23T11:38:34;98202.34;;;8.01;75.71
63115;BME280;49208;50.874;6.466;2024-02-23T11:41:01;98200.53;;;8.02;75.65
63115;BME280;49208;50.874;6.466;2024-02-23T11:43:27;98209.25;;;8.04;75.93
63115;BME280;49208;50.874;6.466;2024-02-23T11:45:53;98215.47;;;8.03;75.42
63115;BME280;49208;50.874;6.466;2024-02-23T11:48:19;98205.16;;;7.98;72.96
63115;BME280;49208;50.874;6.466;2024-02-23T11:50:45;98208.41;;;7.89;74.43
63115;BME280;49208;50.874;6.466;2024-02-23T11:53:10;98213.09;;;7.84;75.28
63115;BME280;49208;50.874;6.466;2024-02-23T11:55:36;98214.22;;;7.80;77.41
63115;BME280;49208;50.874;6.466;2024-02-23T11:58:01;98207.81;;;7.84;78.80
63115;BME280;49208;50.874;6.466;2024-02-23T12:00:27;98202.22;;;7.88;77.91
63115;BME280;49208;50.874;6.466;2024-02-23T12:02:55;98201.84;;;7.95;80.35
63115;BME280;49208;50.874;6.466;2024-02-23T12:05:20;98202.22;;;8.03;77.99
63115;BME280;49208;50.874;6.466;2024-02-23T12:07:45;98195.41;;;8.13;77.84
63115;BME280;49208;50.874;6.466;2024-02-23T12:10:11;98200.63;;;8.15;79.21
63115;BME280;49208;50.874;6.466;2024-02-23T12:12:37;98206.22;;;8.24;77.42
63115;BME280;49208;50.874;6.466;2024-02-23T12:15:03;98197.91;;;8.30;77.26
63115;BME280;49208;50.874;6.466;2024-02-23T12:17:28;98205.56;;;8.35;76.89
63115;BME280;49208;50.874;6.466;2024-02-23T12:20:02;98196.56;;;8.38;78.06
63115;BME280;49208;50.874;6.466;2024-02-23T12:22:28;98199.41;;;8.35;75.93
63115;BME280;49208;50.874;6.466;2024-02-23T12:24:57;98193.16;;;8.36;77.04
63115;BME280;49208;50.874;6.466;2024-02-23T12:27:22;98198.81;;;8.29;74.08
63115;BME280;49208;50.874;6.466;2024-02-23T12:29:55;98212.53;;;8.36;76.99
63115;BME280;49208;50.874;6.466;2024-02-23T12:32:21;98198.66;;;8.47;75.12
63115;BME280;49208;50.874;6.466;2024-02-23T12:34:47;98185.56;;;8.58;74.79
63115;BME280;49208;50.874;6.466;2024-02-23T12:37:16;98199.75;;;8.72;76.03
63115;BME280;49208;50.874;6.466;2024-02-23T12:39:42;98191.06;;;8.97;73.29
63115;BME280;49208;50.874;6.466;2024-02-23T12:42:08;98182.81;;;9.01;73.19
63115;BME280;49208;50.874;6.466;2024-02-23T12:44:33;98178.16;;;9.05;73.07
63115;BME280;49208;50.874;6.466;2024-02-23T12:46:59;98188.59;;;9.21;73.50
63115;BME280;49208;50.874;6.466;2024-02-23T12:49:24;98183.63;;;9.29;72.18
63115;BME280;49208;50.874;6.466;2024-02-23T12:51:49;98178.00;;;9.34;68.50
63115;BME280;49208;50.874;6.466;2024-02-23T12:54:15;98184.25;;;9.20;69.65
63115;BME280;49208;50.874;6.466;2024-02-23T12:56:40;98190.72;;;9.16;71.79
63115;BME280;49208;50.874;6.466;2024-02-23T12:59:06;98188.59;;;9.21;69.27
63115;BME280;49208;50.874;6.466;2024-02-23T13:01:32;98186.69;;;9.23;70.87
63115;BME280;49208;50.874;6.466;2024-02-23T13:04:01;98176.41;;;9.31;70.90
63115;BME280;49208;50.874;6.466;2024-02-23T13:06:27;98180.38;;;9.38;71.05
63115;BME280;49208;50.874;6.466;2024-02-23T13:08:52;98182.69;;;9.43;72.16
63115;BME280;49208;50.874;6.466;2024-02-23T13:11:18;98205.09;;;9.39;72.98
63115;BME280;49208;50.874;6.466;2024-02-23T13:13:43;98198.38;;;9.33;68.24
63115;BME280;49208;50.874;6.466;2024-02-23T13:16:08;98196.28;;;9.38;69.34
63115;BME280;49208;50.874;6.466;2024-02-23T13:18:34;98188.00;;;9.43;69.88
63115;BME280;49208;50.874;6.466;2024-02-23T13:20:59;98177.72;;;9.38;68.87
63115;BME280;49208;50.874;6.466;2024-02-23T13:23:24;98182.97;;;9.25;68.92
63115;BME280;49208;50.874;6.466;2024-02-23T13:25:50;98175.94;;;9.12;68.91
63115;BME280;49208;50.874;6.466;2024-02-23T13:28:15;98176.03;;;9.10;72.17
63115;BME280;49208;50.874;6.466;2024-02-23T13:30:41;98173.47;;;9.08;72.23
63115;BME280;49208;50.874;6.466;2024-02-23T13:33:07;98166.38;;;9.09;74.58
63115;BME280;49208;50.874;6.466;2024-02-23T13:35:33;98168.91;;;9.10;72.29
63115;BME280;49208;50.874;6.466;2024-02-23T13:37:59;98151.22;;;9.11;74.26
63115;BME280;49208;50.874;6.466;2024-02-23T13:40:25;98153.56;;;9.28;70.85
63115;BME280;49208;50.874;6.466;2024-02-23T13:42:50;98159.75;;;9.42;71.98
63115;BME280;49208;50.874;6.466;2024-02-23T13:45:18;98156.81;;;9.46;71.78
63115;BME280;49208;50.874;6.466;2024-02-23T13:48:01;98160.94;;;9.50;71.87
63115;BME280;49208;50.874;6.466;2024-02-23T13:50:27;98167.94;;;9.51;70.87
63115;BME280;49208;50.874;6.466;2024-02-23T13:52:53;98176.75;;;9.52;71.12
63115;BME280;49208;50.874;6.466;2024-02-23T13:55:19;98164.13;;;9.56;69.65
63115;BME280;49208;50.874;6.466;2024-02-23T13:57:48;98164.53;;;9.49;70.32
63115;BME280;49208;50.874;6.466;2024-02-23T14:00:15;98173.34;;;9.37;70.55
63115;BME280;49208;50.874;6.466;2024-02-23T14:02:41;98164.19;;;9.28;71.20
63115;BME280;49208;50.874;6.466;2024-02-23T14:05:07;98164.91;;;9.18;69.54
63115;BME280;49208;50.874;6.466;2024-02-23T14:07:33;98169.53;;;9.01;70.43
63115;BME280;49208;50.874;6.466;2024-02-23T14:09:58;98171.00;;;8.93;70.71
63115;BME280;49208;50.874;6.466;2024-02-23T14:12:24;98172.31;;;8.85;70.51
63115;BME280;49208;50.874;6.466;2024-02-23T14:14:49;98173.66;;;8.93;71.92
63115;BME280;49208;50.874;6.466;2024-02-23T14:17:15;98164.00;;;9.04;72.00
63115;BME280;49208;50.874;6.466;2024-02-23T14:19:40;98162.66;;;9.12;72.92
63115;BME280;49208;50.874;6.466;2024-02-23T14:22:06;98171.06;;;9.18;73.95
63115;BME280;49208;50.874;6.466;2024-02-23T14:24:31;98173.50;;;9.21;75.19
63115;BME280;49208;50.874;6.466;2024-02-23T14:26:57;98167.44;;;9.19;74.67
63115;BME280;49208;50.874;6.466;2024-02-23T14:29:22;98172.31;;;9.13;74.46
63115;BME280;49208;50.874;6.466;2024-02-23T14:31:48;98174.53;;;9.06;73.74
63115;BME280;49208;50.874;6.466;2024-02-23T14:34:13;98177.59;;;9.00;72.93
63115;BME280;49208;50.874;6.466;2024-02-23T14:36:39;98178.28;;;8.89;73.49
63115;BME280;49208;50.874;6.466;2024-02-23T14:39:04;98168.00;;;8.84;73.60
63115;BME280;49208;50.874;6.466;2024-02-23T14:41:30;98174.72;;;8.76;75.18
63115;BME280;49208;50.874;6.466;2024-02-23T14:43:55;98176.75;;;8.72;75.96
63115;BME280;49208;50.874;6.466;2024-02-23T14:46:21;98170.03;;;8.66;76.04
63115;BME280;49208;50.874;6.466;2024-02-23T14:48:46;98172.66;;;8.66;77.48
63115;BME280;49208;50.874;6.466;2024-02-23T14:51:14;98175.41;;;8.65;77.10
63115;BME280;49208;50.874;6.466;2024-02-23T14:53:40;98178.72;;;8.68;76.92
63115;BME280;49208;50.874;6.466;2024-02-23T14:56:06;98175.22;;;8.68;78.27
63115;BME280;49208;50.874;6.466;2024-02-23T14:58:31;98176.28;;;8.65;77.98
63115;BME280;49208;50.874;6.466;2024-02-23T15:00:56;98182.53;;;8.64;78.39
63115;BME280;49208;50.874;6.466;2024-02-23T15:03:22;98175.63;;;8.62;78.41
63115;BME280;49208;50.874;6.466;2024-02-23T15:05:48;98184.25;;;8.65;78.44
63115;BME280;49208;50.874;6.466;2024-02-23T15:08:13;98173.88;;;8.75;75.92
63115;BME280;49208;50.874;6.466;2024-02-23T15:10:39;98181.34;;;8.83;74.73
63115;BME280;49208;50.874;6.466;2024-02-23T15:13:04;98183.91;;;8.84;73.56
63115;BME280;49208;50.874;6.466;2024-02-23T15:15:29;98177.09;;;8.80;74.89
63115;BME280;49208;50.874;6.466;2024-02-23T15:17:55;98174.09;;;8.72;75.42
63115;BME280;49208;50.874;6.466;2024-02-23T15:20:20;98184.44;;;8.62;74.93
63115;BME280;49208;50.874;6.466;2024-02-23T15:22:46;98187.75;;;8.52;76.57
63115;BME280;49208;50.874;6.466;2024-02-23T15:25:12;98185.50;;;8.45;74.11
63115;BME280;49208;50.874;6.466;2024-02-23T15:27:37;98187.75;;;8.37;74.54
63115;BME280;49208;50.874;6.466;2024-02-23T15:30:05;98195.25;;;8.30;73.69
63115;BME280;49208;50.874;6.466;2024-02-23T15:32:33;98189.47;;;8.24;73.78
63115;BME280;49208;50.874;6.466;2024-02-23T15:34:59;98186.84;;;8.24;73.90
63115;BME280;49208;50.874;6.466;2024-02-23T15:37:25;98184.34;;;8.21;72.08
63115;BME280;49208;50.874;6.466;2024-02-23T15:39:50;98187.47;;;8.13;73.72
63115;BME280;49208;50.874;6.466;2024-02-23T15:42:16;98188.91;;;8.04;75.17
63115;BME280;49208;50.874;6.466;2024-02-23T15:44:45;98180.19;;;8.02;73.95
63115;BME280;49208;50.874;6.466;2024-02-23T15:47:11;98184.19;;;7.95;77.58
63115;BME280;49208;50.874;6.466;2024-02-23T15:49:36;98194.19;;;7.90;78.01
63115;BME280;49208;50.874;6.466;2024-02-23T15:52:01;98194.94;;;7.92;77.98
63115;BME280;49208;50.874;6.466;2024-02-23T15:54:27;98198.56;;;7.91;79.31
63115;BME280;49208;50.874;6.466;2024-02-23T15:56:55;98214.75;;;7.86;86.32
63115;BME280;49208;50.874;6.466;2024-02-23T15:59:20;98218.69;;;7.79;92.08
63115;BME280;49208;50.874;6.466;2024-02-23T16:01:46;98203.16;;;7.73;89.74
63115;BME280;49208;50.874;6.466;2024-02-23T16:04:11;98208.72;;;7.54;88.80
63115;BME280;49208;50.874;6.466;2024-02-23T16:06:37;98217.81;;;7.34;91.92
63115;BME280;49208;50.874;6.466;2024-02-23T16:09:03;98217.66;;;7.21;93.91
63115;BME280;49208;50.874;6.466;2024-02-23T16:11:32;98221.88;;;7.09;93.50
63115;BME280;49208;50.874;6.466;2024-02-23T16:13:58;98223.50;;;6.96;93.92
63115;BME280;49208;50.874;6.466;2024-02-23T16:16:23;98226.00;;;6.83;92.98
63115;BME280;49208;50.874;6.466;2024-02-23T16:18:49;98216.03;;;6.73;94.18
63115;BME280;49208;50.874;6.466;2024-02-23T16:21:15;98223.63;;;6.63;96.77
63115;BME280;49208;50.874;6.466;2024-02-23T16:23:42;98221.50;;;6.54;96.92
63115;BME280;49208;50.874;6.466;2024-02-23T16:26:07;98232.13;;;6.52;97.81
63115;BME280;49208;50.874;6.466;2024-02-23T16:28:33;98227.97;;;6.48;95.67
63115;BME280;49208;50.874;6.466;2024-02-23T16:30:59;98227.00;;;6.49;93.58
63115;BME280;49208;50.874;6.466;2024-02-23T16:33:24;98231.63;;;6.45;95.01
63115;BME280;49208;50.874;6.466;2024-02-23T16:35:52;98233.56;;;6.42;96.15
63115;BME280;49208;50.874;6.466;2024-02-23T16:38:24;98237.31;;;6.38;97.10
63115;BME280;49208;50.874;6.466;2024-02-23T16:40:49;98235.84;;;6.32;97.02
63115;BME280;49208;50.874;6.466;2024-02-23T16:43:15;98238.81;;;6.26;96.94
63115;BME280;49208;50.874;6.466;2024-02-23T16:45:40;98232.19;;;6.19;97.58
63115;BME280;49208;50.874;6.466;2024-02-23T16:48:06;98234.19;;;6.14;97.70
63115;BME280;49208;50.874;6.466;2024-02-23T16:50:35;98228.47;;;6.05;97.72
63115;BME280;49208;50.874;6.466;2024-02-23T16:53:01;98220.78;;;6.01;99.00
63115;BME280;49208;50.874;6.466;2024-02-23T16:55:27;98230.03;;;5.92;98.28
63115;BME280;49208;50.874;6.466;2024-02-23T16:57:52;98224.88;;;5.89;97.22
63115;BME280;49208;50.874;6.466;2024-02-23T17:00:18;98230.16;;;5.89;95.93
63115;BME280;49208;50.874;6.466;2024-02-23T17:02:44;98234.59;;;5.88;96.27
63115;BME280;49208;50.874;6.466;2024-02-23T17:05:09;98230.47;;;5.83;97.42
63115;BME280;49208;50.874;6.466;2024-02-23T17:07:34;98228.00;;;5.80;97.29
63115;BME280;49208;50.874;6.466;2024-02-23T17:10:00;98233.38;;;5.78;97.72
63115;BME280;49208;50.874;6.466;2024-02-23T17:12:26;98236.84;;;5.79;97.65
63115;BME280;49208;50.874;6.466;2024-02-23T17:14:52;98242.84;;;5.82;96.90
63115;BME280;49208;50.874;6.466;2024-02-23T17:17:18;98242.84;;;5.82;97.18
63115;BME280;49208;50.874;6.466;2024-02-23T17:19:46;98245.53;;;5.81;96.38
63115;BME280;49208;50.874;6.466;2024-02-23T17:22:12;98255.25;;;5.80;96.26
63115;BME280;49208;50.874;6.466;2024-02-23T17:24:37;98247.59;;;5.76;96.37
63115;BME280;49208;50.874;6.466;2024-02-23T17:27:03;98245.97;;;5.73;96.57
63115;BME280;49208;50.874;6.466;2024-02-23T17:29:29;98244.66;;;5.64;97.39
63115;BME280;49208;50.874;6.466;2024-02-23T17:31:55;98250.13;;;5.60;97.43
63115;BME280;49208;50.874;6.466;2024-02-23T17:34:20;98251.16;;;5.57;96.83
63115;BME280;49208;50.874;6.466;2024-02-23T17:36:45;98252.19;;;5.55;97.05
63115;BME280;49208;50.874;6.466;2024-02-23T17:39:11;98249.59;;;5.53;97.51
63115;BME280;49208;50.874;6.466;2024-02-23T17:41:38;98251.47;;;5.51;98.42
63115;BME280;49208;50.874;6.466;2024-02-23T17:44:04;98252.41;;;5.50;98.13
63115;BME280;49208;50.874;6.466;2024-02-23T17:46:31;98249.78;;;5.50;98.30
63115;BME280;49208;50.874;6.466;2024-02-23T17:48:56;98255.66;;;5.55;98.34
63115;BME280;49208;50.874;6.466;2024-02-23T17:51:21;98248.38;;;5.60;97.71
63115;BME280;49208;50.874;6.466;2024-02-23T17:53:47;98253.88;;;5.73;95.94
63115;BME280;49208;50.874;6.466;2024-02-23T17:56:12;98250.75;;;5.82;95.71
63115;BME280;49208;50.874;6.466;2024-02-23T17:58:37;98256.75;;;5.86;95.68
63115;BME280;49208;50.874;6.466;2024-02-23T18:01:03;98258.69;;;5.82;96.24
63115;BME280;49208;50.874;6.466;2024-02-23T18:03:29;98262.16;;;5.83;96.58
63115;BME280;49208;50.874;6.466;2024-02-23T18:05:56;98263.88;;;5.84;96.66
63115;BME280;49208;50.874;6.466;2024-02-23T18:08:21;98260.47;;;5.82;97.32
63115;BME280;49208;50.874;6.466;2024-02-23T18:10:47;98265.81;;;5.80;96.72
63115;BME280;49208;50.874;6.466;2024-02-23T18:13:12;98270.09;;;5.83;96.40
63115;BME280;49208;50.874;6.466;2024-02-23T18:15:38;98277.00;;;5.85;95.92
63115;BME280;49208;50.874;6.466;2024-02-23T18:18:04;98280.50;;;5.86;95.68
63115;BME280;49208;50.874;6.466;2024-02-23T18:20:29;98291.06;;;5.86;96.45
63115;BME280;49208;50.874;6.466;2024-02-23T18:22:55;98291.91;;;5.86;95.49
63115;BME280;49208;50.874;6.466;2024-02-23T18:25:22;98290.03;;;5.88;95.34
63115;BME280;49208;50.874;6.466;2024-02-23T18:27:47;98287.47;;;5.87;96.43
63115;BME280;49208;50.874;6.466;2024-02-23T18:30:13;98301.44;;;5.89;94.70
63115;BME280;49208;50.874;6.466;2024-02-23T18:32:39;98297.13;;;5.88;94.64
63115;BME280;49208;50.874;6.466;2024-02-23T18:35:07;98294.53;;;5.86;95.43
63115;BME280;49208;50.874;6.466;2024-02-23T18:37:34;98297.97;;;5.88;95.17
63115;BME280;49208;50.874;6.466;2024-02-23T18:40:00;98284.75;;;5.88;94.89
63115;BME280;49208;50.874;6.466;2024-02-23T18:42:25;98286.56;;;5.88;94.43
63115;BME280;49208;50.874;6.466;2024-02-23T18:44:51;98295.41;;;5.87;95.56
63115;BME280;49208;50.874;6.466;2024-02-23T18:47:17;98301.63;;;5.86;96.26
63115;BME280;49208;50.874;6.466;2024-02-23T18:49:42;98309.53;;;5.86;95.78
63115;BME280;49208;50.874;6.466;2024-02-23T18:52:07;98312.31;;;5.83;95.96
63115;BME280;49208;50.874;6.466;2024-02-23T18:54:34;98306.25;;;5.81;96.67
63115;BME280;49208;50.874;6.466;2024-02-23T18:57:00;98309.91;;;5.78;97.38
63115;BME280;49208;50.874;6.466;2024-02-23T18:59:26;98315.28;;;5.77;95.93
63115;BME280;49208;50.874;6.466;2024-02-23T19:01:52;98315.75;;;5.67;96.22
63115;BME280;49208;50.874;6.466;2024-02-23T19:04:17;98317.13;;;5.57;98.19
63115;BME280;49208;50.874;6.466;2024-02-23T19:06:43;98310.47;;;5.50;98.54
63115;BME280;49208;50.874;6.466;2024-02-23T19:09:08;98314.56;;;5.38;99.13
63115;BME280;49208;50.874;6.466;2024-02-23T19:11:34;98314.28;;;5.25;99.94
63115;BME280;49208;50.874;6.466;2024-02-23T19:13:59;98305.25;;;5.12;100.00
63115;BME280;49208;50.874;6.466;2024-02-23T19:16:25;98317.03;;;5.05;100.00
63115;BME280;49208;50.874;6.466;2024-02-23T19:18:50;98307.06;;;4.93;100.00
63115;BME280;49208;50.874;6.466;2024-02-23T19:21:16;98316.03;;;4.89;100.00
63115;BME280;49208;50.874;6.466;2024-02-23T19:23:42;98311.22;;;4.79;100.00
63115;BME280;49208;50.874;6.466;2024-02-23T19:26:09;98310.31;;;4.79;100.00
63115;BME280;49208;50.874;6.466;2024-02-23T19:28:34;98312.41;;;4.72;100.00
63115;BME280;49208;50.874;6.466;2024-02-23T19:31:00;98312.69;;;4.66;100.00
63115;BME280;49208;50.874;6.466;2024-02-23T19:33:25;98309.41;;;4.61;100.00
63115;BME280;49208;50.874;6.466;2024-02-23T19:35:51;98321.09;;;4.55;100.00
63115;BME280;49208;50.874;6.466;2024-02-23T19:38:16;98316.66;;;4.56;100.00
63115;BME280;49208;50.874;6.466;2024-02-23T19:40:42;98316.03;;;4.51;100.00
63115;BME280;49208;50.874;6.466;2024-02-23T19:43:07;98316.22;;;4.46;100.00
63115;BME280;49208;50.874;6.466;2024-02-23T19:45:32;98321.63;;;4.43;100.00
63115;BME280;49208;50.874;6.466;2024-02-23T19:47:58;98323.53;;;4.39;100.00
63115;BME280;49208;50.874;6.466;2024-02-23T19:50:23;98327.75;;;4.43;100.00
63115;BME280;49208;50.874;6.466;2024-02-23T19:52:49;98319.47;;;4.32;100.00
63115;BME280;49208;50.874;6.466;2024-02-23T19:55:14;98328.81;;;4.39;100.00
63115;BME280;49208;50.874;6.466;2024-02-23T19:57:39;98322.84;;;4.36;100.00
63115;BME280;49208;50.874;6.466;2024-02-23T20:00:05;98323.91;;;4.32;100.00
63115;BME280;49208;50.874;6.466;2024-02-23T20:02:31;98332.78;;;4.29;100.00
63115;BME280;49208;50.874;6.466;2024-02-23T20:04:56;98326.59;;;4.30;100.00
63115;BME280;49208;50.874;6.466;2024-02-23T20:07:22;98318.75;;;4.29;100.00
63115;BME280;49208;50.874;6.466;2024-02-23T20:09:48;98322.13;;;4.32;100.00
63115;BME280;49208;50.874;6.466;2024-02-23T20:12:13;98324.81;;;4.31;100.00
63115;BME280;49208;50.874;6.466;2024-02-23T20:14:39;98316.78;;;4.34;100.00
63115;BME280;49208;50.874;6.466;2024-02-23T20:17:05;98318.63;;;4.32;100.00
63115;BME280;49208;50.874;6.466;2024-02-23T20:19:30;98325.53;;;4.34;100.00
63115;BME280;49208;50.874;6.466;2024-02-23T20:21:56;98316.97;;;4.29;100.00
63115;BME280;49208;50.874;6.466;2024-02-23T20:24:22;98319.53;;;4.31;100.00
63115;BME280;49208;50.874;6.466;2024-02-23T20:26:47;98328.56;;;4.25;100.00
63115;BME280;49208;50.874;6.466;2024-02-23T20:29:13;98329.63;;;4.21;100.00
63115;BME280;49208;50.874;6.466;2024-02-23T20:31:39;98333.41;;;4.15;100.00
63115;BME280;49208;50.874;6.466;2024-02-23T20:34:07;98328.13;;;4.15;100.00
63115;BME280;49208;50.874;6.466;2024-02-23T20:36:34;98343.78;;;4.18;100.00
63115;BME280;49208;50.874;6.466;2024-02-23T20:38:59;98344.50;;;4.22;100.00